Time;durP1;ratioP1;P1;durP2;ratioP2;P2;SDS_P1;SDS_P2;PMS_P1;PMS_P2;Temp;Humidity;BMP_temperature;BMP_pressure;BME280_temperature;BME280_humidity;BME280_pressure;Samples;Min_cycle;Max_cycle;Signal;HPM_P1;HPM_P2
2023/06/18 00:02:02;;;;;;;30.35;27.17;;;16.30;99.90;;;;;;7378566;19;20022;-79
2023/06/18 00:04:28;;;;;;;30.00;27.05;;;16.20;99.90;;;;;;7377416;19;20025;-80
2023/06/18 00:06:55;;;;;;;31.55;28.25;;;16.20;99.90;;;;;;7378545;19;20037;-79
2023/06/18 00:09:22;;;;;;;32.00;28.73;;;16.10;99.90;;;;;;7378254;19;20010;-79
2023/06/18 00:11:49;;;;;;;32.15;28.83;;;16.10;99.90;;;;;;7376338;19;20030;-80
2023/06/18 00:14:16;;;;;;;33.78;28.30;;;16.10;99.90;;;;;;7376401;19;20053;-80
2023/06/18 00:16:44;;;;;;;33.03;29.63;;;16.00;99.90;;;;;;7373725;19;20025;-80
2023/06/18 00:19:10;;;;;;;34.03;29.00;;;16.10;99.90;;;;;;7375324;19;20514;-79
2023/06/18 00:21:37;;;;;;;32.42;29.05;;;16.00;99.90;;;;;;7374251;19;20024;-79
2023/06/18 00:24:04;;;;;;;30.85;27.73;;;16.00;99.90;;;;;;7377037;19;20026;-80
2023/06/18 00:26:30;;;;;;;31.77;28.40;;;15.90;99.90;;;;;;7374917;19;20018;-80
2023/06/18 00:28:57;;;;;;;30.77;27.63;;;15.90;99.90;;;;;;7372445;19;20014;-80
2023/06/18 00:31:25;;;;;;;31.67;27.27;;;15.80;99.90;;;;;;7374346;19;20018;-79
2023/06/18 00:33:52;;;;;;;33.28;29.90;;;15.80;99.90;;;;;;7375974;19;20061;-79
2023/06/18 00:36:20;;;;;;;34.03;30.55;;;15.80;99.90;;;;;;7371752;19;20551;-79
2023/06/18 00:38:47;;;;;;;33.10;29.58;;;15.80;99.90;;;;;;7375495;19;20665;-79
2023/06/18 00:41:13;;;;;;;32.38;28.98;;;15.80;99.90;;;;;;7377797;19;20029;-80
2023/06/18 00:43:39;;;;;;;32.78;29.25;;;15.80;99.90;;;;;;7376858;19;20022;-80
2023/06/18 00:46:07;;;;;;;34.13;30.10;;;15.80;99.90;;;;;;7376331;19;20018;-79
2023/06/18 00:48:35;;;;;;;33.17;29.88;;;15.80;99.90;;;;;;7372734;19;20025;-80
2023/06/18 00:51:03;;;;;;;33.80;30.40;;;15.60;99.90;;;;;;7374396;19;20025;-79
2023/06/18 00:53:31;;;;;;;34.05;30.35;;;15.60;99.90;;;;;;7375110;19;20028;-79
2023/06/18 00:55:58;;;;;;;34.30;30.58;;;15.60;99.90;;;;;;7376325;19;20021;-80
2023/06/18 00:58:25;;;;;;;34.45;30.95;;;15.60;99.90;;;;;;7371466;19;20026;-80
2023/06/18 01:00:51;;;;;;;35.40;31.63;;;15.60;99.90;;;;;;7373511;19;20022;-78
2023/06/18 01:03:22;;;;;;;34.45;30.92;;;15.50;99.90;;;;;;7374119;19;20025;-79
2023/06/18 01:05:58;;;;;;;35.20;31.42;;;15.40;99.90;;;;;;7375342;19;20026;-79
2023/06/18 01:08:24;;;;;;;35.47;31.67;;;15.50;99.90;;;;;;7372716;19;20624;-79
2023/06/18 01:11:03;;;;;;;35.15;30.42;;;15.50;99.90;;;;;;7375380;19;20078;-79
2023/06/18 01:13:36;;;;;;;36.33;32.50;;;15.40;99.90;;;;;;7374714;19;20018;-79
2023/06/18 01:16:09;;;;;;;34.90;31.27;;;15.30;99.90;;;;;;7376585;19;20105;-78
2023/06/18 01:18:41;;;;;;;36.05;32.20;;;15.30;99.90;;;;;;7372879;19;20379;-79
2023/06/18 01:21:10;;;;;;;37.10;33.10;;;15.20;99.90;;;;;;7374452;19;20019;-79
2023/06/18 01:23:52;;;;;;;34.85;31.25;;;15.20;99.90;;;;;;7372277;19;20061;-79
2023/06/18 01:26:20;;;;;;;36.60;32.72;;;15.20;99.90;;;;;;7376801;19;20022;-79
2023/06/18 01:28:51;;;;;;;34.50;30.88;;;15.20;99.90;;;;;;7374103;19;20014;-78
2023/06/18 01:31:24;;;;;;;35.40;31.75;;;15.20;99.90;;;;;;7374989;19;20019;-78
2023/06/18 01:33:53;;;;;;;36.72;32.95;;;15.20;99.90;;;;;;7372545;19;20947;-79
2023/06/18 01:36:47;;;;;;;39.10;32.97;;;15.10;99.90;;;;;;7373185;19;20109;-79
2023/06/18 01:39:38;;;;;;;37.50;33.33;;;15.10;99.90;;;;;;7368621;19;20049;-79
2023/06/18 01:42:16;;;;;;;37.92;33.83;;;15.10;99.90;;;;;;7360487;19;20018;-79
2023/06/18 01:44:45;;;;;;;39.85;34.55;;;15.00;99.90;;;;;;7372860;19;20028;-79
2023/06/18 01:47:16;;;;;;;38.10;34.00;;;15.00;99.90;;;;;;7370782;19;20043;-79
2023/06/18 01:49:44;;;;;;;37.42;33.15;;;15.00;99.90;;;;;;7369371;19;20022;-79
2023/06/18 01:52:16;;;;;;;38.10;34.10;;;15.00;99.90;;;;;;7375283;19;20007;-80
2023/06/18 01:54:48;;;;;;;37.47;33.53;;;15.00;99.90;;;;;;7373597;19;20082;-79
2023/06/18 01:57:15;;;;;;;40.58;34.15;;;14.90;99.90;;;;;;7371945;19;20037;-80
2023/06/18 01:59:50;;;;;;;36.95;33.15;;;14.90;99.90;;;;;;7367016;19;20352;-79
2023/06/18 02:02:16;;;;;;;39.28;33.50;;;14.90;99.90;;;;;;7365054;19;20018;-79
2023/06/18 02:04:43;;;;;;;40.95;36.58;;;14.90;99.90;;;;;;7370446;19;20018;-80
2023/06/18 02:07:14;;;;;;;40.60;36.35;;;14.80;99.90;;;;;;7371208;19;20694;-79
2023/06/18 02:09:43;;;;;;;39.08;34.97;;;14.80;99.90;;;;;;7371123;19;20122;-80
2023/06/18 02:12:10;;;;;;;41.70;36.72;;;14.80;99.90;;;;;;7372413;19;20028;-79
2023/06/18 02:14:37;;;;;;;39.40;35.28;;;14.80;99.90;;;;;;7369795;19;20018;-79
2023/06/18 02:17:04;;;;;;;41.53;35.45;;;14.70;99.90;;;;;;7373479;19;20025;-79
2023/06/18 02:19:31;;;;;;;41.53;36.97;;;14.70;99.90;;;;;;7369934;19;20019;-79
2023/06/18 02:21:57;;;;;;;45.60;36.75;;;14.70;99.90;;;;;;7372514;19;20038;-79
2023/06/18 02:24:23;;;;;;;41.33;36.15;;;14.70;99.90;;;;;;7372139;19;20022;-79
2023/06/18 02:26:50;;;;;;;44.08;37.60;;;14.70;99.90;;;;;;7370879;19;20631;-80
2023/06/18 02:29:18;;;;;;;45.70;37.72;;;14.70;99.90;;;;;;7371062;19;20028;-79
2023/06/18 02:31:44;;;;;;;41.58;36.75;;;14.70;99.90;;;;;;7371874;19;20022;-79
2023/06/18 02:34:15;;;;;;;43.70;38.53;;;14.60;99.90;;;;;;7371180;19;20467;-79
2023/06/18 02:36:42;;;;;;;43.28;38.65;;;14.60;99.90;;;;;;7370358;19;20014;-79
2023/06/18 02:39:10;;;;;;;39.15;35.10;;;14.70;99.90;;;;;;7370500;19;20033;-79
2023/06/18 02:41:36;;;;;;;43.95;36.85;;;14.70;99.90;;;;;;7367581;19;20018;-79
2023/06/18 02:44:04;;;;;;;41.63;37.22;;;14.70;99.90;;;;;;7370418;19;20374;-79
2023/06/18 02:46:30;;;;;;;42.25;37.63;;;14.70;99.90;;;;;;7368832;19;20019;-79
2023/06/18 02:48:58;;;;;;;42.30;37.13;;;14.70;99.90;;;;;;7364306;19;20022;-79
2023/06/18 02:51:25;;;;;;;45.63;38.33;;;14.70;99.90;;;;;;7368407;19;20483;-79
2023/06/18 02:53:52;;;;;;;45.20;39.03;;;14.70;99.90;;;;;;7368046;19;20465;-79
2023/06/18 02:56:18;;;;;;;45.83;39.47;;;14.70;99.90;;;;;;7367679;19;20026;-79
2023/06/18 02:58:46;;;;;;;43.30;38.15;;;14.60;99.90;;;;;;7375083;19;20034;-79
2023/06/18 03:01:12;;;;;;;45.17;39.17;;;14.60;99.90;;;;;;7375953;19;20025;-79
2023/06/18 03:03:42;;;;;;;44.15;37.83;;;14.60;99.90;;;;;;7376039;19;20527;-79
2023/06/18 03:06:08;;;;;;;47.38;38.75;;;14.60;99.90;;;;;;7373888;19;20014;-79
2023/06/18 03:08:34;;;;;;;41.60;36.58;;;14.50;99.90;;;;;;7375378;19;20031;-79
2023/06/18 03:11:00;;;;;;;44.85;39.03;;;14.50;99.90;;;;;;7373419;19;20019;-79
2023/06/18 03:13:29;;;;;;;43.53;38.75;;;14.50;99.90;;;;;;7374940;19;20029;-78
2023/06/18 03:15:55;;;;;;;47.28;39.47;;;14.50;99.90;;;;;;7370995;19;20385;-79
2023/06/18 03:18:23;;;;;;;47.53;39.38;;;14.50;99.90;;;;;;7368104;19;20022;-79
2023/06/18 03:20:51;;;;;;;45.85;39.67;;;14.50;99.90;;;;;;7360386;19;20023;-79
2023/06/18 03:23:19;;;;;;;46.88;38.83;;;14.50;99.90;;;;;;7376638;19;20373;-79
2023/06/18 03:25:48;;;;;;;45.08;37.65;;;14.40;99.90;;;;;;7377666;19;20040;-80
2023/06/18 03:28:19;;;;;;;40.63;36.15;;;14.40;99.90;;;;;;7375611;19;20029;-79
2023/06/18 03:30:46;;;;;;;43.78;37.78;;;14.40;99.90;;;;;;7377902;19;20023;-78
2023/06/18 03:33:13;;;;;;;40.80;36.58;;;14.40;99.90;;;;;;7377565;19;20018;-79
2023/06/18 03:35:41;;;;;;;39.60;35.35;;;14.40;99.90;;;;;;7375188;19;20014;-78
2023/06/18 03:38:09;;;;;;;37.60;33.17;;;14.30;99.90;;;;;;7376805;19;20041;-79
2023/06/18 03:40:35;;;;;;;38.17;34.08;;;14.30;99.90;;;;;;7375802;19;20101;-79
2023/06/18 03:43:01;;;;;;;37.13;33.17;;;14.30;99.90;;;;;;7377594;19;20781;-79
2023/06/18 03:45:29;;;;;;;38.35;33.72;;;14.30;99.90;;;;;;7376081;19;20022;-80
2023/06/18 03:47:56;;;;;;;39.67;34.70;;;14.30;99.90;;;;;;7375482;19;20489;-79
2023/06/18 03:50:25;;;;;;;39.13;34.97;;;14.30;99.90;;;;;;7371493;19;20767;-80
2023/06/18 03:52:51;;;;;;;40.42;34.85;;;14.30;99.90;;;;;;7359190;19;20023;-80
2023/06/18 03:55:18;;;;;;;44.92;36.83;;;14.30;99.90;;;;;;7365562;19;20408;-80
2023/06/18 03:57:44;;;;;;;44.50;37.92;;;14.30;99.90;;;;;;7374567;19;20022;-79
2023/06/18 04:00:14;;;;;;;45.65;35.33;;;14.30;99.90;;;;;;7373323;19;20078;-79
2023/06/18 04:02:40;;;;;;;42.15;37.38;;;14.40;99.90;;;;;;7372692;19;20014;-79
2023/06/18 04:05:14;;;;;;;47.85;39.83;;;14.40;99.90;;;;;;7377657;19;20019;-79
2023/06/18 04:07:40;;;;;;;48.83;40.83;;;14.30;99.90;;;;;;7373078;19;20014;-79
2023/06/18 04:10:07;;;;;;;50.58;42.80;;;14.40;99.90;;;;;;7371605;19;20028;-79
2023/06/18 04:12:33;;;;;;;55.83;40.97;;;14.50;99.90;;;;;;7369852;19;20094;-79
2023/06/18 04:14:59;;;;;;;47.45;41.83;;;14.50;99.90;;;;;;7371527;19;20019;-79
2023/06/18 04:17:27;;;;;;;45.78;40.70;;;14.60;99.90;;;;;;7374558;19;20029;-79
2023/06/18 04:19:54;;;;;;;48.97;41.72;;;14.70;99.90;;;;;;7371834;19;20037;-80
2023/06/18 04:22:21;;;;;;;52.30;42.63;;;14.80;99.90;;;;;;7370379;19;20106;-79
2023/06/18 04:24:47;;;;;;;54.13;43.00;;;14.80;99.90;;;;;;7374641;19;20025;-79
2023/06/18 04:27:14;;;;;;;50.22;40.40;;;14.90;99.90;;;;;;7359788;19;20477;-80
2023/06/18 04:29:41;;;;;;;47.97;40.55;;;14.90;99.90;;;;;;7362243;19;20444;-79
2023/06/18 04:32:08;;;;;;;51.67;41.13;;;15.00;99.90;;;;;;7372480;19;20029;-80
2023/06/18 04:34:35;;;;;;;52.88;41.05;;;15.00;99.90;;;;;;7372087;19;20649;-79
2023/06/18 04:37:02;;;;;;;50.88;41.63;;;15.10;99.90;;;;;;7374460;19;20026;-80
2023/06/18 04:39:29;;;;;;;53.28;43.00;;;15.10;99.90;;;;;;7369593;19;20089;-80
2023/06/18 04:41:55;;;;;;;52.00;42.63;;;15.10;99.90;;;;;;7373274;19;20027;-79
2023/06/18 04:44:21;;;;;;;52.70;40.88;;;15.20;99.90;;;;;;7371733;19;20687;-79
2023/06/18 04:46:49;;;;;;;48.15;39.75;;;15.30;99.90;;;;;;7372474;19;20150;-81
2023/06/18 04:49:19;;;;;;;49.40;41.78;;;15.20;99.90;;;;;;7373583;19;20753;-79
2023/06/18 04:51:46;;;;;;;47.35;41.15;;;15.30;99.90;;;;;;7368872;19;20490;-80
2023/06/18 04:54:15;;;;;;;49.42;39.75;;;15.40;99.90;;;;;;7371501;19;20014;-79
2023/06/18 04:56:42;;;;;;;45.55;40.50;;;15.50;99.90;;;;;;7370448;19;20026;-79
2023/06/18 04:59:08;;;;;;;53.28;41.20;;;15.50;99.90;;;;;;7371927;19;20019;-79
2023/06/18 05:01:34;;;;;;;48.53;40.90;;;15.60;99.90;;;;;;7366497;19;20042;-80
2023/06/18 05:04:00;;;;;;;46.38;39.42;;;15.60;99.90;;;;;;7374487;19;20019;-78
2023/06/18 05:06:27;;;;;;;47.47;39.88;;;15.70;99.90;;;;;;7366573;19;20045;-79
2023/06/18 05:08:53;;;;;;;46.85;41.33;;;15.70;99.90;;;;;;7375201;19;20032;-80
2023/06/18 05:11:20;;;;;;;48.13;40.95;;;16.00;99.90;;;;;;7370087;19;20456;-80
2023/06/18 05:13:47;;;;;;;43.50;38.85;;;16.10;99.90;;;;;;7359617;19;20030;-79
2023/06/18 05:16:16;;;;;;;41.88;36.95;;;16.40;99.90;;;;;;7361327;19;20019;-80
2023/06/18 05:18:42;;;;;;;39.22;35.00;;;16.50;99.90;;;;;;7374194;19;20018;-79
2023/06/18 05:21:12;;;;;;;39.60;34.70;;;16.80;99.90;;;;;;7368210;19;20018;-79
2023/06/18 05:23:40;;;;;;;41.45;36.35;;;17.00;99.90;;;;;;7371516;19;20023;-79
2023/06/18 05:26:09;;;;;;;38.17;34.00;;;17.10;99.90;;;;;;7373500;19;20018;-80
2023/06/18 05:28:35;;;;;;;39.47;35.28;;;17.30;99.90;;;;;;7374086;19;20014;-80
2023/06/18 05:31:02;;;;;;;38.17;34.22;;;17.50;99.90;;;;;;7371737;19;20034;-80
2023/06/18 05:33:29;;;;;;;35.72;31.70;;;17.80;99.90;;;;;;7371069;19;20367;-79
2023/06/18 05:35:59;;;;;;;34.40;30.77;;;18.00;99.90;;;;;;7367536;19;20022;-79
2023/06/18 05:38:25;;;;;;;36.33;32.63;;;18.20;99.90;;;;;;7369150;19;20566;-79
2023/06/18 05:40:51;;;;;;;33.25;29.75;;;18.30;99.90;;;;;;7368760;19;20082;-79
2023/06/18 05:43:18;;;;;;;34.75;30.70;;;18.40;99.90;;;;;;7371081;19;20344;-79
2023/06/18 05:45:49;;;;;;;33.10;29.37;;;18.60;99.90;;;;;;7370487;19;20023;-79
2023/06/18 05:48:16;;;;;;;32.55;29.15;;;18.70;99.90;;;;;;7371661;19;20025;-79
2023/06/18 05:50:51;;;;;;;32.00;28.70;;;18.90;99.90;;;;;;7370407;19;20010;-80
2023/06/18 05:53:18;;;;;;;32.90;29.40;;;19.20;99.90;;;;;;7366223;19;20031;-80
2023/06/18 05:55:44;;;;;;;32.25;29.05;;;19.20;99.90;;;;;;7368005;19;20138;-80
2023/06/18 05:58:12;;;;;;;31.48;28.00;;;19.40;99.90;;;;;;7364256;19;20011;-80
2023/06/18 06:00:39;;;;;;;30.73;27.73;;;19.40;99.90;;;;;;7355210;19;20729;-79
2023/06/18 06:03:06;;;;;;;32.05;28.63;;;19.40;99.90;;;;;;7351442;19;20018;-82
2023/06/18 06:05:32;;;;;;;28.55;25.63;;;19.70;99.90;;;;;;7355021;19;20019;-81
2023/06/18 06:07:58;;;;;;;29.67;26.63;;;20.00;99.90;;;;;;7356291;19;20022;-80
2023/06/18 06:10:25;;;;;;;30.05;26.83;;;20.30;99.90;;;;;;7352260;19;20035;-80
2023/06/18 06:12:53;;;;;;;29.52;26.52;;;20.60;99.90;;;;;;7355464;19;20026;-80
2023/06/18 06:15:19;;;;;;;30.73;27.42;;;20.70;99.90;;;;;;7369543;19;20106;-80
2023/06/18 06:17:46;;;;;;;133.10;120.05;;;20.60;99.90;;;;;;7365068;19;20022;-80
2023/06/18 06:20:14;;;;;;;117.00;105.05;;;20.80;99.90;;;;;;7369925;19;20026;-80
2023/06/18 06:22:40;;;;;;;50.42;45.45;;;20.90;99.90;;;;;;7371855;19;20119;-80
2023/06/18 06:25:08;;;;;;;38.15;34.20;;;21.10;99.90;;;;;;7372038;19;20022;-80
2023/06/18 06:27:35;;;;;;;29.73;26.73;;;21.00;99.90;;;;;;7370647;19;20826;-80
2023/06/18 06:30:03;;;;;;;31.88;28.55;;;21.30;99.90;;;;;;7374032;19;20086;-80
2023/06/18 06:32:31;;;;;;;30.25;27.05;;;21.20;99.90;;;;;;7372934;19;20352;-80
2023/06/18 06:34:57;;;;;;;30.83;27.55;;;21.30;99.90;;;;;;7376242;19;20086;-80
2023/06/18 06:37:24;;;;;;;30.30;27.13;;;21.20;99.90;;;;;;7379577;19;20030;-80
2023/06/18 06:39:50;;;;;;;27.27;24.65;;;21.30;99.90;;;;;;7378237;19;20087;-80
2023/06/18 06:42:17;;;;;;;25.70;23.15;;;21.50;99.90;;;;;;7364490;19;20010;-81
2023/06/18 06:44:47;;;;;;;112.75;101.65;;;21.50;99.90;;;;;;7362462;19;20821;-80
2023/06/18 06:47:24;;;;;;;30.05;27.13;;;21.70;99.90;;;;;;7367679;19;20020;-80
2023/06/18 06:50:18;;;;;;;;;;;21.70;99.90;;;;;;7377503;19;20022;-80
2023/06/18 06:52:58;;;;;;;39.20;35.40;;;21.90;99.90;;;;;;7377583;19;19922;-80
2023/06/18 06:55:24;;;;;;;36.53;32.83;;;22.30;99.90;;;;;;7374658;19;20041;-80
2023/06/18 06:57:51;;;;;;;24.20;21.80;;;22.50;99.90;;;;;;7377900;19;20504;-80
2023/06/18 07:00:18;;;;;;;24.48;21.98;;;22.70;99.90;;;;;;7374974;19;20014;-79
2023/06/18 07:02:44;;;;;;;24.52;21.40;;;22.90;99.90;;;;;;7377699;19;20018;-80
2023/06/18 07:05:10;;;;;;;22.40;20.20;;;23.30;99.90;;;;;;7374654;19;20015;-80
2023/06/18 07:07:37;;;;;;;22.38;20.08;;;23.50;99.90;;;;;;7375714;19;20018;-80
2023/06/18 07:10:05;;;;;;;24.10;21.55;;;23.80;99.90;;;;;;7376594;19;20077;-80
2023/06/18 07:12:31;;;;;;;22.95;20.65;;;24.10;99.90;;;;;;7374960;19;20388;-80
2023/06/18 07:14:57;;;;;;;20.55;18.48;;;24.00;99.90;;;;;;7372708;19;20082;-80
2023/06/18 07:17:23;;;;;;;22.20;19.95;;;24.10;99.90;;;;;;7376006;19;20033;-80
2023/06/18 07:19:49;;;;;;;23.85;21.48;;;24.00;99.90;;;;;;7377596;19;20110;-80
2023/06/18 07:22:16;;;;;;;20.02;18.00;;;24.10;99.90;;;;;;7375396;19;20027;-81
2023/06/18 07:24:42;;;;;;;22.10;19.80;;;24.20;99.90;;;;;;7376304;19;20036;-79
2023/06/18 07:27:09;;;;;;;20.40;18.17;;;24.20;99.90;;;;;;7375939;19;20015;-81
2023/06/18 07:29:35;;;;;;;19.70;17.70;;;24.20;99.90;;;;;;7377005;19;20086;-79
2023/06/18 07:32:02;;;;;;;27.50;24.95;;;24.30;99.90;;;;;;7371897;19;20489;-80
2023/06/18 07:34:28;;;;;;;19.48;17.65;;;24.50;99.90;;;;;;7367691;19;20122;-80
2023/06/18 07:36:56;;;;;;;21.00;18.88;;;24.60;99.90;;;;;;7369441;19;20608;-80
2023/06/18 07:39:23;;;;;;;24.33;22.00;;;24.80;99.90;;;;;;7375590;19;20025;-81
2023/06/18 07:41:49;;;;;;;19.05;17.13;;;24.70;99.90;;;;;;7371782;19;20062;-80
2023/06/18 07:44:16;;;;;;;20.15;17.95;;;24.80;99.90;;;;;;7374589;19;20015;-80
2023/06/18 07:46:43;;;;;;;18.30;16.33;;;25.10;99.90;;;;;;7375817;19;20025;-81
2023/06/18 07:49:10;;;;;;;23.00;20.90;;;25.10;99.90;;;;;;7375454;19;20019;-81
2023/06/18 07:51:37;;;;;;;20.50;18.52;;;25.10;99.90;;;;;;7373127;19;20051;-81
2023/06/18 07:54:04;;;;;;;20.70;18.70;;;25.00;99.90;;;;;;7377676;19;20775;-81
2023/06/18 07:56:30;;;;;;;20.67;18.42;;;25.00;99.90;;;;;;7377204;19;20014;-81
2023/06/18 07:58:56;;;;;;;21.13;19.00;;;24.80;99.90;;;;;;7373553;19;20074;-80
2023/06/18 08:01:23;;;;;;;19.20;17.30;;;24.60;99.90;;;;;;7374666;19;20033;-79
2023/06/18 08:03:49;;;;;;;19.95;18.15;;;24.80;99.90;;;;;;7371719;19;20022;-81
2023/06/18 08:06:16;;;;;;;18.55;16.25;;;25.00;99.90;;;;;;7356895;19;20014;-80
2023/06/18 08:08:42;;;;;;;21.30;18.08;;;25.20;99.90;;;;;;7365125;19;20345;-82
2023/06/18 08:11:09;;;;;;;18.23;16.33;;;25.20;99.90;;;;;;7373416;19;20026;-80
2023/06/18 08:13:35;;;;;;;18.17;16.30;;;25.20;99.90;;;;;;7374053;19;20022;-83
2023/06/18 08:16:01;;;;;;;20.63;18.52;;;25.40;99.90;;;;;;7372380;19;20026;-81
2023/06/18 08:18:28;;;;;;;20.90;18.90;;;25.60;99.90;;;;;;7376320;19;20010;-81
2023/06/18 08:20:55;;;;;;;19.88;17.88;;;25.50;99.90;;;;;;7375482;19;20078;-82
2023/06/18 08:23:21;;;;;;;22.23;20.13;;;25.70;99.90;;;;;;7371031;19;20486;-84
2023/06/18 08:25:47;;;;;;;20.42;18.45;;;25.80;99.90;;;;;;7374077;19;20568;-81
2023/06/18 08:28:14;;;;;;;16.58;14.95;;;25.60;99.90;;;;;;7374367;19;20029;-81
2023/06/18 08:30:40;;;;;;;18.98;17.00;;;25.80;99.90;;;;;;7374613;19;20493;-80
2023/06/18 08:33:06;;;;;;;17.48;15.65;;;26.10;99.90;;;;;;7373500;19;20018;-81
2023/06/18 08:35:32;;;;;;;18.00;16.17;;;26.30;99.90;;;;;;7375135;19;20018;-83
2023/06/18 08:37:59;;;;;;;21.40;18.58;;;26.60;99.90;;;;;;7373254;19;20018;-80
2023/06/18 08:40:30;;;;;;;20.05;18.10;;;26.80;99.90;;;;;;7374442;19;20014;-81
2023/06/18 08:42:57;;;;;;;16.55;15.00;;;27.10;99.90;;;;;;7372085;19;20045;-81
2023/06/18 08:45:23;;;;;;;35.75;32.47;;;27.50;99.90;;;;;;7370833;19;20022;-81
2023/06/18 08:47:55;;;;;;;16.27;14.27;;;27.80;97.50;;;;;;7374836;19;20007;-82
2023/06/18 08:50:21;;;;;;;13.05;11.70;;;28.20;96.00;;;;;;7376197;19;20014;-83
2023/06/18 08:52:53;;;;;;;15.18;13.18;;;28.40;94.20;;;;;;7371605;19;20022;-84
2023/06/18 08:55:20;;;;;;;11.75;10.57;;;28.40;88.80;;;;;;7367813;19;20364;-84
2023/06/18 08:58:04;;;;;;;11.52;10.40;;;28.70;88.90;;;;;;7373530;19;20029;-85
2023/06/18 09:00:31;;;;;;;11.45;10.10;;;29.10;76.00;;;;;;7372775;19;20022;-85
2023/06/18 09:02:58;;;;;;;13.65;11.57;;;29.20;78.50;;;;;;7375741;19;20034;-85
2023/06/18 09:05:27;;;;;;;16.05;11.30;;;29.50;72.80;;;;;;7371454;19;20131;-85
2023/06/18 09:07:54;;;;;;;12.07;10.85;;;29.50;69.80;;;;;;7374539;19;20023;-85
2023/06/18 09:10:21;;;;;;;10.65;9.38;;;29.40;63.40;;;;;;7374800;19;20018;-85
2023/06/18 09:12:47;;;;;;;10.85;9.20;;;29.60;61.90;;;;;;7373207;19;20057;-85
2023/06/18 09:15:14;;;;;;;10.43;7.88;;;29.70;60.40;;;;;;7371821;19;20022;-85
2023/06/18 09:17:50;;;;;;;13.02;8.27;;;30.30;60.40;;;;;;7368307;19;20011;-85
2023/06/18 09:20:19;;;;;;;12.98;8.48;;;30.50;56.50;;;;;;7371903;19;20018;-85
2023/06/18 09:22:48;;;;;;;10.07;9.07;;;30.80;57.30;;;;;;7358473;19;20093;-85
2023/06/18 09:25:19;;;;;;;8.48;7.10;;;30.80;56.60;;;;;;7356104;19;20019;-86
2023/06/18 09:27:46;;;;;;;8.98;8.07;;;31.00;54.40;;;;;;7356304;19;20015;-85
2023/06/18 09:30:23;;;;;;;8.23;7.43;;;31.00;52.40;;;;;;7359519;19;20021;-85
2023/06/18 09:32:49;;;;;;;9.70;7.72;;;30.80;51.30;;;;;;7356132;19;20019;-85
2023/06/18 09:35:18;;;;;;;7.60;6.82;;;31.20;51.50;;;;;;7352293;19;20024;-85
2023/06/18 09:37:46;;;;;;;9.13;7.88;;;31.00;50.60;;;;;;7356147;19;20118;-85
2023/06/18 09:40:17;;;;;;;8.43;7.47;;;31.00;50.60;;;;;;7353910;19;20015;-84
2023/06/18 09:42:44;;;;;;;10.18;7.43;;;31.00;51.50;;;;;;7356613;19;20031;-85
2023/06/18 09:45:17;;;;;;;8.27;7.13;;;31.30;51.80;;;;;;7355710;19;20050;-85
2023/06/18 09:47:48;;;;;;;11.55;9.18;;;31.50;48.50;;;;;;7354286;19;20023;-85
2023/06/18 09:50:18;;;;;;;7.97;7.07;;;31.60;48.70;;;;;;7357698;19;20026;-85
2023/06/18 09:52:50;;;;;;;8.23;6.85;;;31.90;49.80;;;;;;7354748;19;20032;-85
2023/06/18 09:55:27;;;;;;;8.88;7.07;;;32.20;49.80;;;;;;7356898;19;20018;-83
2023/06/18 09:57:53;;;;;;;9.38;7.13;;;32.10;47.50;;;;;;7354876;19;20684;-84
2023/06/18 10:00:22;;;;;;;10.75;7.38;;;31.90;47.80;;;;;;7356691;19;20018;-83
2023/06/18 10:02:48;;;;;;;10.07;8.10;;;31.80;48.30;;;;;;7355581;19;20594;-84
2023/06/18 10:05:14;;;;;;;8.70;7.28;;;31.60;47.60;;;;;;7352827;19;20018;-83
2023/06/18 10:07:43;;;;;;;8.73;7.53;;;31.40;47.80;;;;;;7366165;19;20022;-84
2023/06/18 10:10:13;;;;;;;7.90;7.07;;;31.20;48.00;;;;;;7366807;19;20060;-83
2023/06/18 10:12:46;;;;;;;8.68;7.10;;;31.20;49.30;;;;;;7364793;19;20040;-82
2023/06/18 10:15:12;;;;;;;10.52;7.30;;;31.40;47.50;;;;;;7363968;19;20014;-84
2023/06/18 10:17:46;;;;;;;11.20;9.57;;;31.40;47.50;;;;;;7364781;19;20033;-84
2023/06/18 10:20:14;;;;;;;8.55;7.63;;;31.30;49.00;;;;;;7365023;19;20019;-84
2023/06/18 10:22:56;;;;;;;9.50;7.28;;;31.50;49.70;;;;;;7365063;19;20489;-86
2023/06/18 10:25:24;;;;;;;12.90;11.60;;;31.60;48.30;;;;;;7365634;19;20022;-81
2023/06/18 10:27:51;;;;;;;11.45;8.70;;;31.70;48.10;;;;;;7364491;19;20022;-78
2023/06/18 10:30:19;;;;;;;23.08;19.85;;;31.60;47.30;;;;;;7365170;19;20022;-80
2023/06/18 10:32:46;;;;;;;28.42;25.63;;;31.80;47.40;;;;;;7360215;19;20457;-80
2023/06/18 10:35:13;;;;;;;15.80;14.18;;;31.80;47.70;;;;;;7358431;19;20022;-81
2023/06/18 10:37:43;;;;;;;20.02;18.27;;;31.70;48.30;;;;;;7361559;19;20593;-80
2023/06/18 10:40:11;;;;;;;14.75;13.40;;;31.70;48.30;;;;;;7372880;19;20019;-81
2023/06/18 10:42:37;;;;;;;15.30;13.95;;;31.50;47.80;;;;;;7376806;19;20026;-81
2023/06/18 10:45:15;;;;;;;10.55;9.38;;;31.40;48.50;;;;;;7376144;19;20026;-81
2023/06/18 10:47:42;;;;;;;9.65;8.75;;;31.20;46.80;;;;;;7374826;19;20030;-81
2023/06/18 10:50:12;;;;;;;10.82;8.27;;;30.80;47.90;;;;;;7377807;19;20033;-81
2023/06/18 10:52:44;;;;;;;8.18;7.10;;;30.60;48.00;;;;;;7376429;19;20018;-81
2023/06/18 10:55:13;;;;;;;9.48;7.88;;;30.60;48.00;;;;;;7369378;19;20021;-81
2023/06/18 10:57:47;;;;;;;8.48;6.82;;;30.50;48.30;;;;;;7368049;19;20937;-80
2023/06/18 11:00:16;;;;;;;13.07;11.77;;;30.60;48.00;;;;;;7373648;19;20045;-80
2023/06/18 11:02:43;;;;;;;7.78;6.88;;;30.80;48.80;;;;;;7373746;19;20014;-81
2023/06/18 11:05:31;;;;;;;8.55;7.65;;;30.70;49.00;;;;;;7372379;19;20019;-83
2023/06/18 11:08:16;;;;;;;11.02;9.88;;;30.80;50.50;;;;;;7370174;19;21045;-80
2023/06/18 11:10:49;;;;;;;10.48;8.15;;;30.70;48.60;;;;;;7370587;19;20028;-81
2023/06/18 11:13:17;;;;;;;9.70;7.90;;;30.40;48.30;;;;;;7373919;19;20014;-84
2023/06/18 11:16:06;;;;;;;12.13;10.32;;;30.20;48.10;;;;;;7371400;19;20037;-84
2023/06/18 11:18:33;;;;;;;10.57;8.18;;;30.20;48.20;;;;;;7372763;19;20021;-83
2023/06/18 11:21:04;;;;;;;16.25;8.93;;;30.00;48.60;;;;;;7371054;19;20679;-82
2023/06/18 11:23:31;;;;;;;;;;;30.20;48.70;;;;;;7373558;19;20023;-83
2023/06/18 11:25:58;;;;;;;8.75;7.75;;;30.20;48.80;;;;;;7373115;19;20033;-83
2023/06/18 11:28:25;;;;;;;8.23;7.40;;;30.40;48.90;;;;;;7374977;19;20030;-82
2023/06/18 11:30:57;;;;;;;10.65;7.45;;;30.40;48.10;;;;;;7372040;19;20022;-83
2023/06/18 11:33:26;;;;;;;8.63;7.10;;;30.60;47.10;;;;;;7374030;19;20474;-83
2023/06/18 11:35:54;;;;;;;9.55;6.93;;;30.90;47.10;;;;;;7369093;19;20018;-83
2023/06/18 11:38:22;;;;;;;8.73;7.10;;;31.10;48.20;;;;;;7373633;19;20022;-83
2023/06/18 11:40:50;;;;;;;9.43;7.40;;;31.20;47.30;;;;;;7372333;19;20014;-82
2023/06/18 11:43:16;;;;;;;8.65;7.32;;;31.40;47.20;;;;;;7371685;19;20029;-82
2023/06/18 11:45:50;;;;;;;10.38;6.97;;;31.80;47.50;;;;;;7370121;19;20026;-79
2023/06/18 11:48:20;;;;;;;9.82;6.75;;;31.80;45.80;;;;;;7367278;19;20018;-79
2023/06/18 11:50:54;;;;;;;7.97;7.18;;;31.90;46.20;;;;;;7368586;19;20022;-79
2023/06/18 11:53:21;;;;;;;9.27;7.68;;;32.10;44.90;;;;;;7373147;19;20137;-79
2023/06/18 11:55:48;;;;;;;8.10;7.13;;;32.40;45.50;;;;;;7373711;19;20105;-82
2023/06/18 11:58:15;;;;;;;13.35;12.02;;;32.50;46.00;;;;;;7375103;19;20284;-79
2023/06/18 12:00:42;;;;;;;48.63;44.50;;;32.30;44.60;;;;;;7372772;19;20051;-79
2023/06/18 12:03:08;;;;;;;24.75;22.63;;;32.60;45.40;;;;;;7367812;19;20675;-78
2023/06/18 12:05:36;;;;;;;8.77;7.65;;;32.60;45.40;;;;;;7373544;19;20018;-78
2023/06/18 12:08:13;;;;;;;8.60;7.70;;;32.60;44.50;;;;;;7368094;19;20565;-79
2023/06/18 12:10:42;;;;;;;7.57;6.88;;;32.50;43.70;;;;;;7374093;19;20513;-78
2023/06/18 12:13:22;;;;;;;11.60;10.50;;;32.40;44.60;;;;;;7371076;19;20010;-79
2023/06/18 12:16:23;;;;;;;16.02;14.50;;;32.70;43.90;;;;;;7373321;19;20025;-79
2023/06/18 12:18:57;;;;;;;17.15;15.55;;;32.70;44.10;;;;;;7369056;19;20018;-78
2023/06/18 12:21:24;;;;;;;11.20;8.05;;;32.90;44.60;;;;;;7369139;19;20018;-78
2023/06/18 12:23:51;;;;;;;9.40;7.65;;;33.20;45.40;;;;;;7371885;19;20019;-79
2023/06/18 12:26:20;;;;;;;10.90;7.35;;;33.50;44.70;;;;;;7371502;19;20018;-77
2023/06/18 12:28:46;;;;;;;8.68;7.20;;;33.70;44.60;;;;;;7365421;19;20022;-78
2023/06/18 12:31:13;;;;;;;9.35;7.13;;;33.80;44.50;;;;;;7349441;19;20999;-79
2023/06/18 12:33:44;;;;;;;8.55;7.85;;;34.20;43.90;;;;;;7355972;19;20031;-79
2023/06/18 12:36:10;;;;;;;8.05;7.15;;;34.40;43.10;;;;;;7368014;19;20026;-80
2023/06/18 12:38:46;;;;;;;9.40;8.57;;;34.20;42.50;;;;;;7375922;19;20074;-78